Sunday, January 25, 2015
16:17 UTC
  |  Log In   |  Register Free
Airport Search:

Independence Municipal Airport
(KIDP)

FAA data valid effective January 08, 2015 - March 05, 2015 (unless otherwise noted).

 
 
 
 
 
 
 
 
 
 
 
 
 
 

Current Aviation Weather for Independence Municipal Airport (KIDP)

The most recent METAR observation for KIDP was updated at: 1610
METAR Summary (Translated METAR)
KIDP
251555Z AUTO 32019G27KT 10SM OVC036 08/01 A2985 RMK AO2
KCFV
251552Z AUTO 32026G34KT 10SM OVC036 09/01 A2984 RMK AO2 PK WND 32042/1518 SLP105 T00890011
(10.6 nm SE from KIDP)
KPPF
251552Z AUTO 33019G30KT 10SM OVC029 08/02 A2984 RMK AO2 PK WND 32036/1515 SLP104 T00780017
(16.6 nm NE from KIDP)
TAF
No TAF information found within 50 nm of KIDP
  Airport Weather Conditions for KIDP

 Current Weather at IDP
46° F
Overcast and Breezy
Northwest winds at 25.3 mph
IDP NOAA Radar

Pressure: 29.84 in
Humidity: 62%
Wind: from the Northwest at 25.3 gusting to 39.1 MPH (22 gusting to 34 KT)
Dew Point: 33.8°F
Visibility: 10.00 mi


Airport Weather Forecast for KIDP

Translated METAR and TAF for KIDP
Translated METAR for KIDP (1617 UTC 25 January 2015)
found at http://aviationweather.gov/adds/metars/
 
METAR text: KIDP 251555Z AUTO 32019G27KT 10SM OVC036 08/01 A2985 RMK AO2
Conditions at: KIDP (INDEPENDENCE , KS, US) observed 1555 UTC 25 January 2015
Temperature: 8.0°C (46°F)
Dewpoint: 1.0°C (34°F) [RH = 61%]
Pressure (altimeter): 29.85 inches Hg (1010.9 mb)
Winds: from the NW (320 degrees) at 22 MPH (19 knots; 9.9 m/s)
gusting to 31 MPH (27 knots; 14.0 m/s)
Visibility: 10 or more miles (16+ km)
Ceiling: 3600 feet AGL
Clouds: overcast cloud deck at 3600 feet AGL
Weather: automated observation with no human augmentation;
there may or may not be significant weather present at this time
Translated TAF for KIDP

There is no translated TAF available for this airport

Find All Airport Services Find A Hotel Find A Rental Car Find A Golf Course Find A Restaurant $100 Hamburger



FBO's on the Field
FBO Company Facility Photos Services Transportation Aviation Fuel Prices: Prices include tax
Catering Weather Repair Courtesy Rental Type 100LL JetA JetA+ MOGAS 8087
 
City of Independence

This FBO has not yet been rated
FS:Phillips 66
Last Updated: Dec-30
Login to update fuel prices
SS:
Contact City of IndependenceMore FBO Information
 
Add another FBO Facility Photos Catering Weather Repair Courtesy Rental Type 100LL JetA JetA+ MOGAS 8087
Services Transportation Aviation Fuel Prices: Prices include tax


model-print
model-print
model-print
model-print